F/V Anna Mamm Mari — FOHD — position and weather

sailwx.info

Track history (hours):
 
Tides and Currents Weather Stations Pressure Air Temp Water Temp Dewpoint Dewpoint Depression Visibility Wind Speed Wind Dir Waves Ship Positions

F/V Anna Mamm Mari

Last reported at 2016-Jul-30 15:33 UTC. Time now 2016-Jul-31 05:25 UTC.
Position N 47°02' W 003°13'.

Length 17 m.

Type: Fishing. MMSI: 228393000.

Date/timePositionNaut miles runAvg speedWind from/ knotsBaromVisibWave heightAir tempDewpointWater temp
2016-Jul-30 15:33N 47°02' W 003°13'7 7.0
2016-Jul-30 14:33N 47°09' W 003°11'3 2.6
2016-Jul-30 13:33N 47°07' W 003°11'5 2.7
2016-Jul-30 11:33N 47°03' W 003°16'1 0.6
2016-Jul-30 10:09N 47°02' W 003°15'1 1.9
2016-Jul-30 09:33N 47°03' W 003°16'1 0.9
2016-Jul-30 08:33N 47°02' W 003°15'0 0.4
2016-Jul-30 07:33N 47°03' W 003°15'2 2.0
2016-Jul-30 06:33N 47°05' W 003°16'0 0.4
2016-Jul-30 05:33N 47°05' W 003°16'3 0.1
2016-Jul-28 14:30N 47°01' W 003°15'1 0.9
2016-Jul-28 13:24N 47°02' W 003°15'2 0.6
2016-Jul-28 10:06N 47°04' W 003°15'0 0.5
2016-Jul-28 09:15N 47°04' W 003°15'1 1.7
2016-Jul-28 08:33N 47°03' W 003°15'1 0.4
2016-Jul-28 07:12N 47°03' W 003°16'1 1.8
2016-Jul-28 06:24N 47°02' W 003°15'1 1.1
2016-Jul-28 05:33N 47°03' W 003°16'0 0.5
2016-Jul-28 04:30N 47°02' W 003°16'14 6.7
2016-Jul-28 02:30N 47°02' W 002°56'21 8.6
2016-Jul-28 00:06N 47°01' W 002°26'6 8.4
2016-Jul-27 23:25N 47°02' W 002°18'1 0.6
2016-Jul-27 22:33N 47°02' W 002°18'0 0.0
2016-Jul-27 21:33N 47°01' W 002°18'0 0.0
2016-Jul-27 20:33N 47°02' W 002°18'0 0.0
2016-Jul-27 19:33N 47°02' W 002°18'0 0.0
2016-Jul-27 18:32N 47°02' W 002°18'0 0.0
2016-Jul-27 17:32N 47°02' W 002°18'0 0.0
2016-Jul-27 15:11N 47°02' W 002°18'0 0.0
2016-Jul-27 14:25N 47°01' W 002°18'1 0.3
2016-Jul-27 10:32N 47°01' W 002°20'38 4.2
2016-Jul-27 01:30N 46°52' W 003°14'0 0.5
2016-Jul-27 00:31N 46°53' W 003°15'11 1.0
2016-Jul-26 14:27N 47°03' W 003°16'1 1.4
2016-Jul-26 13:33N 47°04' W 003°15'6 2.4
2016-Jul-26 11:15N 46°59' W 003°14'4 0.4
2016-Jul-26 00:33N 47°03' W 003°13'0 0.1
2016-Jul-25 20:33N 47°03' W 003°13'0 0.0
2016-Jul-25 19:30N 47°03' W 003°13'0 0.0
2016-Jul-25 18:15N 47°03' W 003°13'0 0.0
2016-Jul-25 17:33N 47°03' W 003°12'0 0.0
2016-Jul-25 16:23N 47°03' W 003°12'0 0.0
2016-Jul-25 15:33N 47°03' W 003°12'0 0.0
2016-Jul-25 14:18N 47°03' W 003°12'2 3.1
2016-Jul-25 13:31N 47°01' W 003°12'8 0.6
2016-Jul-25 00:24N 46°53' W 003°13'3 0.5
2016-Jul-24 17:13N 46°56' W 003°12'2 3.2
2016-Jul-24 16:33N 46°58' W 003°14'6 4.5
2016-Jul-24 15:15N 47°04' W 003°15'1 1.1
2016-Jul-24 14:33N 47°03' W 003°15'3 2.8
2016-Jul-24 13:26N 46°60' W 003°15'1 1.2
2016-Jul-24 12:32N 47°01' W 003°15'0 0.2
2016-Jul-24 11:33N 47°01' W 003°15'1 1.0
2016-Jul-24 10:30N 47°02' W 003°15'3 2.9
2016-Jul-24 09:33N 47°05' W 003°16'0 0.4
2016-Jul-24 08:30N 47°05' W 003°16'2 1.9
2016-Jul-24 07:33N 47°03' W 003°16'1 0.7
2016-Jul-24 06:33N 47°03' W 003°16'14 7.3
2016-Jul-24 04:33N 46°54' W 002°60'33 8.1
2016-Jul-24 00:29N 46°39' W 002°17'9 8.9
2016-Jul-23 23:26N 46°34' W 002°05'8 8.8
2016-Jul-23 22:33N 46°30' W 001°55'6 5.5
2016-Jul-23 21:33N 46°30' W 001°47'0 0.0
2016-Jul-23 20:33N 46°30' W 001°47'0 0.0
2016-Jul-23 19:33N 46°30' W 001°47'0 0.0
2016-Jul-23 18:34N 46°30' W 001°47'0 0.2
2016-Jul-23 17:33N 46°30' W 001°47'2 1.7
2016-Jul-23 16:33N 46°28' W 001°48'9 9.3
2016-Jul-23 15:33N 46°32' W 002°01'9 9.4
2016-Jul-23 14:33N 46°36' W 002°13'46 4.1
2016-Jul-23 03:18N 46°52' W 003°16'9 5.0
2016-Jul-23 01:33N 47°01' W 003°15'2 2.3
2016-Jul-23 00:33N 47°03' W 003°15'1 0.6
2016-Jul-22 23:33N 47°02' W 003°14'1 1.0
2016-Jul-22 22:27N 47°03' W 003°15'0 0.3
2016-Jul-22 21:33N 47°03' W 003°15'1 0.8
2016-Jul-22 20:33N 47°04' W 003°15'2 1.7
2016-Jul-22 19:33N 47°05' W 003°14'0 0.0
2016-Jul-22 18:33N 47°05' W 003°14'0 0.0
2016-Jul-22 17:31N 47°05' W 003°14'0 0.1
2016-Jul-22 16:15N 47°05' W 003°14'0 0.0
2016-Jul-22 15:24N 47°05' W 003°14'0 0.0
2016-Jul-22 14:33N 47°05' W 003°14'0 0.0
2016-Jul-22 13:33N 47°05' W 003°14'0 0.2
2016-Jul-22 12:30N 47°05' W 003°14'1 1.4
2016-Jul-22 11:33N 47°05' W 003°16'1 1.0
2016-Jul-22 10:33N 47°04' W 003°17'0 0.2
2016-Jul-22 09:33N 47°04' W 003°16'1 0.5
2016-Jul-22 08:33N 47°04' W 003°15'1 0.6
2016-Jul-22 07:33N 47°05' W 003°15'2 0.5
2016-Jul-22 04:27N 47°03' W 003°13'1 0.2
2016-Jul-22 01:03N 47°04' W 003°13'0 0.2
2016-Jul-22 00:33N 47°04' W 003°13'0 0.2
2016-Jul-21 23:33N 47°04' W 003°13'0 0.1
2016-Jul-21 22:33N 47°04' W 003°13'0 0.1
2016-Jul-21 21:33N 47°04' W 003°13'0 0.1
2016-Jul-21 20:30N 47°04' W 003°13'0 0.1
2016-Jul-21 19:33N 47°04' W 003°13'0 0.1
2016-Jul-21 18:33N 47°04' W 003°13'0 0.1
2016-Jul-21 17:33N 47°04' W 003°13'0 0.1
2016-Jul-21 16:33N 47°04' W 003°13'0 0.1
2016-Jul-21 13:21N 47°04' W 003°13'10 8.6
2016-Jul-21 12:12N 46°54' W 003°14'2 0.4
2016-Jul-21 06:30N 46°52' W 003°15'1 1.2
2016-Jul-21 05:27N 46°53' W 003°15'1 1.1
2016-Jul-21 04:33N 46°53' W 003°13'  
Track history (hours):
 
Tides and Currents Weather Stations Pressure Air Temp Water Temp Dewpoint Dewpoint Depression Visibility Wind Speed Wind Dir Waves Ship Positions

F/V Anna Mamm Mari

Last reported at 2016-Jul-30 15:33 UTC. Time now 2016-Jul-31 05:25 UTC.
Position N 47°02' W 003°13'.

Length 17 m.

Type: Fishing. MMSI: 228393000.

Date/timePositionNaut miles runAvg speedWind from/ knotsBaromVisibWave heightAir tempDewpointWater temp
2016-Jul-30 15:33N 47°02' W 003°13'7 7.0
2016-Jul-30 14:33N 47°09' W 003°11'3 2.6
2016-Jul-30 13:33N 47°07' W 003°11'5 2.7
2016-Jul-30 11:33N 47°03' W 003°16'1 0.6
2016-Jul-30 10:09N 47°02' W 003°15'1 1.9
2016-Jul-30 09:33N 47°03' W 003°16'1 0.9
2016-Jul-30 08:33N 47°02' W 003°15'0 0.4
2016-Jul-30 07:33N 47°03' W 003°15'2 2.0
2016-Jul-30 06:33N 47°05' W 003°16'0 0.4
2016-Jul-30 05:33N 47°05' W 003°16'3 0.1
2016-Jul-28 14:30N 47°01' W 003°15'1 0.9
2016-Jul-28 13:24N 47°02' W 003°15'2 0.6
2016-Jul-28 10:06N 47°04' W 003°15'0 0.5
2016-Jul-28 09:15N 47°04' W 003°15'1 1.7
2016-Jul-28 08:33N 47°03' W 003°15'1 0.4
2016-Jul-28 07:12N 47°03' W 003°16'1 1.8
2016-Jul-28 06:24N 47°02' W 003°15'1 1.1
2016-Jul-28 05:33N 47°03' W 003°16'0 0.5
2016-Jul-28 04:30N 47°02' W 003°16'14 6.7
2016-Jul-28 02:30N 47°02' W 002°56'21 8.6
2016-Jul-28 00:06N 47°01' W 002°26'6 8.4
2016-Jul-27 23:25N 47°02' W 002°18'1 0.6
2016-Jul-27 22:33N 47°02' W 002°18'0 0.0
2016-Jul-27 21:33N 47°01' W 002°18'0 0.0
2016-Jul-27 20:33N 47°02' W 002°18'0 0.0
2016-Jul-27 19:33N 47°02' W 002°18'0 0.0
2016-Jul-27 18:32N 47°02' W 002°18'0 0.0
2016-Jul-27 17:32N 47°02' W 002°18'0 0.0
2016-Jul-27 15:11N 47°02' W 002°18'0 0.0
2016-Jul-27 14:25N 47°01' W 002°18'1 0.3
2016-Jul-27 10:32N 47°01' W 002°20'38 4.2
2016-Jul-27 01:30N 46°52' W 003°14'0 0.5
2016-Jul-27 00:31N 46°53' W 003°15'11 1.0
2016-Jul-26 14:27N 47°03' W 003°16'1 1.4
2016-Jul-26 13:33N 47°04' W 003°15'6 2.4
2016-Jul-26 11:15N 46°59' W 003°14'4 0.4
2016-Jul-26 00:33N 47°03' W 003°13'0 0.1
2016-Jul-25 20:33N 47°03' W 003°13'0 0.0
2016-Jul-25 19:30N 47°03' W 003°13'0 0.0
2016-Jul-25 18:15N 47°03' W 003°13'0 0.0
2016-Jul-25 17:33N 47°03' W 003°12'0 0.0
2016-Jul-25 16:23N 47°03' W 003°12'0 0.0
2016-Jul-25 15:33N 47°03' W 003°12'0 0.0
2016-Jul-25 14:18N 47°03' W 003°12'2 3.1
2016-Jul-25 13:31N 47°01' W 003°12'8 0.6
2016-Jul-25 00:24N 46°53' W 003°13'3 0.5
2016-Jul-24 17:13N 46°56' W 003°12'2 3.2
2016-Jul-24 16:33N 46°58' W 003°14'6 4.5
2016-Jul-24 15:15N 47°04' W 003°15'1 1.1
2016-Jul-24 14:33N 47°03' W 003°15'3 2.8
2016-Jul-24 13:26N 46°60' W 003°15'1 1.2
2016-Jul-24 12:32N 47°01' W 003°15'0 0.2
2016-Jul-24 11:33N 47°01' W 003°15'1 1.0
2016-Jul-24 10:30N 47°02' W 003°15'3 2.9
2016-Jul-24 09:33N 47°05' W 003°16'0 0.4
2016-Jul-24 08:30N 47°05' W 003°16'2 1.9
2016-Jul-24 07:33N 47°03' W 003°16'1 0.7
2016-Jul-24 06:33N 47°03' W 003°16'14 7.3
2016-Jul-24 04:33N 46°54' W 002°60'33 8.1
2016-Jul-24 00:29N 46°39' W 002°17'9 8.9
2016-Jul-23 23:26N 46°34' W 002°05'8 8.8
2016-Jul-23 22:33N 46°30' W 001°55'6 5.5
2016-Jul-23 21:33N 46°30' W 001°47'0 0.0
2016-Jul-23 20:33N 46°30' W 001°47'0 0.0
2016-Jul-23 19:33N 46°30' W 001°47'0 0.0
2016-Jul-23 18:34N 46°30' W 001°47'0 0.2
2016-Jul-23 17:33N 46°30' W 001°47'2 1.7
2016-Jul-23 16:33N 46°28' W 001°48'9 9.3
2016-Jul-23 15:33N 46°32' W 002°01'9 9.4
2016-Jul-23 14:33N 46°36' W 002°13'46 4.1
2016-Jul-23 03:18N 46°52' W 003°16'9 5.0
2016-Jul-23 01:33N 47°01' W 003°15'2 2.3
2016-Jul-23 00:33N 47°03' W 003°15'1 0.6
2016-Jul-22 23:33N 47°02' W 003°14'1 1.0
2016-Jul-22 22:27N 47°03' W 003°15'0 0.3
2016-Jul-22 21:33N 47°03' W 003°15'1 0.8
2016-Jul-22 20:33N 47°04' W 003°15'2 1.7
2016-Jul-22 19:33N 47°05' W 003°14'0 0.0
2016-Jul-22 18:33N 47°05' W 003°14'0 0.0
2016-Jul-22 17:31N 47°05' W 003°14'0 0.1
2016-Jul-22 16:15N 47°05' W 003°14'0 0.0
2016-Jul-22 15:24N 47°05' W 003°14'0 0.0
2016-Jul-22 14:33N 47°05' W 003°14'0 0.0
2016-Jul-22 13:33N 47°05' W 003°14'0 0.2
2016-Jul-22 12:30N 47°05' W 003°14'1 1.4
2016-Jul-22 11:33N 47°05' W 003°16'1 1.0
2016-Jul-22 10:33N 47°04' W 003°17'0 0.2
2016-Jul-22 09:33N 47°04' W 003°16'1 0.5
2016-Jul-22 08:33N 47°04' W 003°15'1 0.6
2016-Jul-22 07:33N 47°05' W 003°15'2 0.5
2016-Jul-22 04:27N 47°03' W 003°13'1 0.2
2016-Jul-22 01:03N 47°04' W 003°13'0 0.2
2016-Jul-22 00:33N 47°04' W 003°13'0 0.2
2016-Jul-21 23:33N 47°04' W 003°13'0 0.1
2016-Jul-21 22:33N 47°04' W 003°13'0 0.1
2016-Jul-21 21:33N 47°04' W 003°13'0 0.1
2016-Jul-21 20:30N 47°04' W 003°13'0 0.1
2016-Jul-21 19:33N 47°04' W 003°13'0 0.1
2016-Jul-21 18:33N 47°04' W 003°13'0 0.1
2016-Jul-21 17:33N 47°04' W 003°13'0 0.1
2016-Jul-21 16:33N 47°04' W 003°13'0 0.1
2016-Jul-21 13:21N 47°04' W 003°13'10 8.6
2016-Jul-21 12:12N 46°54' W 003°14'2 0.4
2016-Jul-21 06:30N 46°52' W 003°15'1 1.2
2016-Jul-21 05:27N 46°53' W 003°15'1 1.1
2016-Jul-21 04:33N 46°53' W 003°13'  

Dump ship's entire track history